createdAt,value
2023-01-23T00:01:34.707Z,21.73
2023-01-23T00:04:05.835Z,23.13
2023-01-23T00:06:34.015Z,21.77
2023-01-23T00:09:03.255Z,24.00
2023-01-23T00:11:43.161Z,23.43
2023-01-23T00:14:23.113Z,22.63
2023-01-23T00:17:06.658Z,22.63
2023-01-23T00:19:44.261Z,25.63
2023-01-23T00:22:24.198Z,24.30
2023-01-23T00:25:02.656Z,25.30
2023-01-23T00:27:39.911Z,25.93
2023-01-23T00:30:18.292Z,23.47
2023-01-23T00:32:57.639Z,25.70
2023-01-23T00:35:36.588Z,25.50
2023-01-23T00:38:07.096Z,24.87
2023-01-23T00:40:35.279Z,25.23
2023-01-23T00:43:03.328Z,25.27
2023-01-23T00:45:31.802Z,24.07
2023-01-23T00:48:01.433Z,23.83
2023-01-23T00:50:29.826Z,24.23
2023-01-23T00:52:57.989Z,25.07
2023-01-23T00:55:26.356Z,24.80
2023-01-23T00:57:54.959Z,25.60
2023-01-23T01:00:24.738Z,24.63
2023-01-23T01:02:52.925Z,25.50
2023-01-23T01:05:22.698Z,23.83
2023-01-23T01:07:53.145Z,23.73
2023-01-23T01:10:22.003Z,22.50
2023-01-23T01:12:52.373Z,23.23
2023-01-23T01:15:22.360Z,23.10
2023-01-23T01:17:50.681Z,22.60
2023-01-23T01:20:19.672Z,22.80
2023-01-23T01:22:49.775Z,23.17
2023-01-23T01:25:18.708Z,22.90
2023-01-23T01:27:47.047Z,21.97
2023-01-23T01:30:16.622Z,22.07
2023-01-23T01:32:44.965Z,22.20
2023-01-23T01:35:14.935Z,21.73
2023-01-23T01:37:43.095Z,21.57
2023-01-23T01:40:15.381Z,21.93
2023-01-23T01:42:45.180Z,22.43
2023-01-23T01:45:50.703Z,21.73
2023-01-23T01:48:20.495Z,21.17
2023-01-23T01:50:51.599Z,21.77
2023-01-23T01:53:19.856Z,21.57
2023-01-23T01:55:49.605Z,23.17
2023-01-23T01:58:17.732Z,21.57
2023-01-23T02:00:46.195Z,21.87
2023-01-23T02:03:14.407Z,24.10
2023-01-23T02:05:44.992Z,21.60
2023-01-23T02:08:16.479Z,21.63
2023-01-23T02:10:47.135Z,21.13
2023-01-23T02:13:37.062Z,21.03
2023-01-23T02:16:07.962Z,22.03
2023-01-23T02:18:37.512Z,21.70
2023-01-23T02:21:08.312Z,21.47
2023-01-23T02:23:49.600Z,20.87
2023-01-23T02:26:29.543Z,20.97
2023-01-23T02:28:59.266Z,21.13
2023-01-23T02:31:32.507Z,20.73
2023-01-23T02:34:01.351Z,23.77
2023-01-23T02:36:34.331Z,21.67
2023-01-23T02:39:07.555Z,20.30
2023-01-23T02:41:40.883Z,19.07
2023-01-23T02:44:18.217Z,19.27
2023-01-23T02:46:52.471Z,19.67
2023-01-23T02:49:22.021Z,19.23
2023-01-23T02:51:50.532Z,19.67
2023-01-23T02:54:19.614Z,19.90
2023-01-23T02:56:49.143Z,19.10
2023-01-23T02:59:35.830Z,18.97
2023-01-23T03:02:06.176Z,19.77
2023-01-23T03:04:34.439Z,20.27
2023-01-23T03:07:02.571Z,20.37
2023-01-23T03:09:31.103Z,20.33
2023-01-23T03:12:01.229Z,19.13
2023-01-23T03:14:31.742Z,18.17
2023-01-23T03:17:01.336Z,19.33
2023-01-23T03:19:36.468Z,19.10
2023-01-23T03:22:05.998Z,19.10
2023-01-23T03:24:35.719Z,18.47
2023-01-23T03:27:05.548Z,19.47
2023-01-23T03:29:57.351Z,17.93
2023-01-23T03:32:26.144Z,18.27
2023-01-23T03:34:56.431Z,18.87
2023-01-23T03:37:26.490Z,18.90
2023-01-23T03:40:13.575Z,18.37
2023-01-23T03:42:43.294Z,18.70
2023-01-23T03:45:14.806Z,18.93
2023-01-23T03:47:43.565Z,18.77
2023-01-23T03:50:12.035Z,18.37
2023-01-23T03:52:41.203Z,18.20
2023-01-23T03:55:10.593Z,18.17
2023-01-23T03:57:39.554Z,17.27
2023-01-23T04:00:26.498Z,17.50
2023-01-23T04:03:03.651Z,17.70
2023-01-23T04:05:31.943Z,18.40
2023-01-23T04:08:01.186Z,18.43
2023-01-23T04:10:30.583Z,18.30
2023-01-23T04:13:05.492Z,17.27
2023-01-23T04:15:37.103Z,17.73
2023-01-23T04:18:07.842Z,18.70
2023-01-23T04:20:36.134Z,17.83
2023-01-23T04:23:04.270Z,17.47
2023-01-23T04:25:32.377Z,17.90
2023-01-23T04:28:03.513Z,17.53
2023-01-23T04:30:34.839Z,19.43
2023-01-23T04:33:11.905Z,17.50
2023-01-23T04:35:40.733Z,17.20
2023-01-23T04:38:08.987Z,16.97
2023-01-23T04:40:39.025Z,18.23
2023-01-23T04:43:07.111Z,16.70
2023-01-23T04:45:40.695Z,17.67
2023-01-23T04:48:27.333Z,17.20
2023-01-23T04:50:55.647Z,17.20
2023-01-23T04:53:23.759Z,18.20
2023-01-23T04:56:01.041Z,17.83
2023-01-23T04:58:29.333Z,17.67
2023-01-23T05:01:04.692Z,16.63
2023-01-23T05:03:35.302Z,17.33
2023-01-23T05:06:03.619Z,17.00
2023-01-23T05:08:31.744Z,18.03
2023-01-23T05:11:11.690Z,16.73
2023-01-23T05:13:40.119Z,18.40
2023-01-23T05:16:10.048Z,18.43
2023-01-23T05:18:58.342Z,17.77
2023-01-23T05:21:26.408Z,18.20
2023-01-23T05:23:55.297Z,18.03
2023-01-23T05:26:26.023Z,19.60
2023-01-23T05:28:56.065Z,17.53
2023-01-23T05:31:25.840Z,20.00
2023-01-23T05:34:16.389Z,19.90
2023-01-23T05:36:47.612Z,18.53
2023-01-23T05:39:16.326Z,19.37
2023-01-23T05:41:44.911Z,19.43
2023-01-23T05:44:39.637Z,18.07
2023-01-23T05:47:18.303Z,18.87
2023-01-23T05:49:46.619Z,19.73
2023-01-23T05:52:14.725Z,36.83
2023-01-23T05:54:44.073Z,19.60
2023-01-23T05:57:14.188Z,18.97
2023-01-23T06:00:21.075Z,18.50
2023-01-23T06:03:10.652Z,18.53
2023-01-23T06:05:56.063Z,17.23
2023-01-23T06:08:27.272Z,18.70
2023-01-23T06:10:58.631Z,16.27
2023-01-23T06:13:27.000Z,18.30
2023-01-23T06:15:55.264Z,18.30
2023-01-23T06:18:26.803Z,17.30
2023-01-23T06:20:59.477Z,17.77
2023-01-23T06:23:28.053Z,16.37
2023-01-23T06:26:04.966Z,17.63
2023-01-23T06:28:37.975Z,16.50
2023-01-23T06:31:10.375Z,18.10
2023-01-23T06:33:52.834Z,17.50
2023-01-23T06:36:24.929Z,17.17
2023-01-23T06:38:53.740Z,17.07
2023-01-23T06:41:27.334Z,18.83
2023-01-23T06:43:56.603Z,17.13
2023-01-23T06:46:27.799Z,17.10
2023-01-23T06:49:00.023Z,17.43
2023-01-23T06:51:29.736Z,17.63
2023-01-23T06:53:58.687Z,18.33
2023-01-23T06:56:26.996Z,17.33
2023-01-23T06:58:55.113Z,17.80
2023-01-23T07:01:29.169Z,17.63
2023-01-23T07:04:17.326Z,17.57
2023-01-23T07:06:46.362Z,17.27
2023-01-23T07:09:17.214Z,18.73
2023-01-23T07:11:51.975Z,17.30
2023-01-23T07:14:22.945Z,19.00
2023-01-23T07:16:55.013Z,17.23
2023-01-23T07:19:27.665Z,18.73
2023-01-23T07:22:01.573Z,17.93
2023-01-23T07:24:32.521Z,17.97
2023-01-23T07:27:00.997Z,17.37
2023-01-23T07:29:29.348Z,18.07
2023-01-23T07:32:00.961Z,18.17
2023-01-23T07:34:33.745Z,18.07
2023-01-23T07:37:03.954Z,20.07
2023-01-23T07:39:32.293Z,18.57
2023-01-23T07:42:02.523Z,17.90
2023-01-23T07:44:31.692Z,18.07
2023-01-23T07:46:59.899Z,19.07
2023-01-23T07:49:29.934Z,18.97
2023-01-23T07:52:01.350Z,18.40
2023-01-23T07:54:29.541Z,17.73
2023-01-23T07:56:57.674Z,17.63
2023-01-23T07:59:25.904Z,18.53
2023-01-23T08:01:53.991Z,17.13
2023-01-23T08:04:23.902Z,17.40
2023-01-23T08:06:52.052Z,16.67
2023-01-23T08:09:21.558Z,16.70
2023-01-23T08:11:52.524Z,17.53
2023-01-23T08:14:20.821Z,16.40
2023-01-23T08:16:50.750Z,16.33
2023-01-23T08:19:21.969Z,16.83
2023-01-23T08:21:55.895Z,17.30
2023-01-23T08:24:28.234Z,17.10
2023-01-23T08:26:57.555Z,16.17
2023-01-23T08:29:25.721Z,17.10
2023-01-23T08:31:55.087Z,15.87
2023-01-23T08:34:24.078Z,17.37
2023-01-23T08:36:52.243Z,16.57
2023-01-23T08:39:21.132Z,17.63
2023-01-23T08:41:50.699Z,17.63
2023-01-23T08:44:18.869Z,16.70
2023-01-23T08:46:47.432Z,16.33
2023-01-23T08:49:15.573Z,16.03
2023-01-23T08:51:43.799Z,15.40
2023-01-23T08:54:11.956Z,15.50
2023-01-23T08:56:42.095Z,15.87
2023-01-23T08:59:13.651Z,14.93
2023-01-23T09:01:42.038Z,15.43
2023-01-23T09:04:10.169Z,16.17
2023-01-23T09:06:39.739Z,16.33
2023-01-23T09:09:07.949Z,15.23
2023-01-23T09:11:37.463Z,14.33
2023-01-23T09:14:05.622Z,14.90
2023-01-23T09:16:35.368Z,15.10
2023-01-23T09:19:03.732Z,14.97
2023-01-23T09:21:31.955Z,15.60
2023-01-23T09:24:00.206Z,16.47
2023-01-23T09:26:28.416Z,15.13
2023-01-23T09:28:56.750Z,15.10
2023-01-23T09:31:27.468Z,14.53
2023-01-23T09:33:57.737Z,14.93
2023-01-23T09:36:41.745Z,15.37
2023-01-23T09:39:11.784Z,13.77
2023-01-23T09:41:44.331Z,15.77
2023-01-23T09:44:15.507Z,14.77
2023-01-23T09:46:47.666Z,14.70
2023-01-23T09:49:21.026Z,15.43
2023-01-23T09:51:53.307Z,15.17
2023-01-23T09:54:32.582Z,14.90
2023-01-23T09:57:02.842Z,15.07
2023-01-23T09:59:44.470Z,14.30
2023-01-23T10:02:25.822Z,14.43
2023-01-23T10:04:58.182Z,15.07
2023-01-23T10:07:39.806Z,14.10
2023-01-23T10:10:29.747Z,13.53
2023-01-23T10:13:06.222Z,14.37
2023-01-23T10:15:40.428Z,14.23
2023-01-23T10:18:17.849Z,15.80
2023-01-23T10:20:54.798Z,14.80
2023-01-23T10:23:51.514Z,15.23
2023-01-23T10:26:24.283Z,14.10
2023-01-23T10:28:55.933Z,13.40
2023-01-23T10:31:38.544Z,13.37
2023-01-23T10:34:14.921Z,12.53
2023-01-23T10:36:54.931Z,12.70
2023-01-23T10:39:27.906Z,11.27
2023-01-23T10:42:02.016Z,11.93
2023-01-23T10:44:30.954Z,11.47
2023-01-23T10:47:03.411Z,10.20
2023-01-23T10:49:35.265Z,9.90
2023-01-23T10:52:07.602Z,9.93
2023-01-23T10:54:47.360Z,10.00
2023-01-23T10:57:23.114Z,9.40
2023-01-23T10:59:56.715Z,10.23
2023-01-23T11:02:31.724Z,9.90
2023-01-23T11:05:01.011Z,10.37
2023-01-23T11:07:31.797Z,9.80
2023-01-23T11:10:02.124Z,10.50
2023-01-23T11:12:32.403Z,9.50
2023-01-23T11:15:17.980Z,9.03
2023-01-23T11:17:48.683Z,9.37
2023-01-23T11:20:25.616Z,9.63
2023-01-23T11:23:08.547Z,8.00
2023-01-23T11:25:39.045Z,8.40
2023-01-23T11:28:25.591Z,8.63
2023-01-23T11:31:07.914Z,7.80
2023-01-23T11:33:44.457Z,7.63
2023-01-23T11:36:31.716Z,7.57
2023-01-23T11:39:05.159Z,7.43
2023-01-23T11:41:38.356Z,6.83
2023-01-23T11:44:11.260Z,6.10
2023-01-23T11:46:55.344Z,5.40
2023-01-23T11:49:33.681Z,5.60
2023-01-23T11:52:13.403Z,5.13
2023-01-23T11:54:58.092Z,5.33
2023-01-23T11:57:33.800Z,5.47
2023-01-23T12:00:08.716Z,5.17
2023-01-23T12:02:59.520Z,5.53
2023-01-23T12:05:44.804Z,5.20
2023-01-23T12:08:21.315Z,5.63
2023-01-23T12:11:00.810Z,9.00
2023-01-23T12:13:46.906Z,5.80
2023-01-23T12:16:23.203Z,6.00
2023-01-23T12:19:06.371Z,5.77
2023-01-23T12:21:39.931Z,6.30
2023-01-23T12:24:19.548Z,5.53
2023-01-23T12:26:59.209Z,5.00
2023-01-23T12:29:52.799Z,5.10
2023-01-23T12:32:36.194Z,4.87
2023-01-23T12:35:19.656Z,5.57
2023-01-23T12:37:58.600Z,4.27
2023-01-23T12:40:29.992Z,5.00
2023-01-23T12:43:04.595Z,4.97
2023-01-23T12:45:34.126Z,5.93
2023-01-23T12:48:07.431Z,5.50
2023-01-23T12:50:40.432Z,4.57
2023-01-23T12:53:12.331Z,4.80
2023-01-23T12:55:47.132Z,5.07
2023-01-23T12:58:18.879Z,4.87
2023-01-23T13:01:08.061Z,4.83
2023-01-23T13:03:50.732Z,5.60
2023-01-23T13:06:34.458Z,5.20
2023-01-23T13:09:17.952Z,5.50
2023-01-23T13:11:54.797Z,5.03
2023-01-23T13:14:32.810Z,5.07
2023-01-23T13:17:04.891Z,5.40
2023-01-23T13:19:51.901Z,5.40
2023-01-23T13:22:29.974Z,5.50
2023-01-23T13:25:12.884Z,4.77
2023-01-23T13:27:51.289Z,5.03
2023-01-23T13:30:40.458Z,5.03
2023-01-23T13:33:52.225Z,4.90
2023-01-23T13:36:37.679Z,5.03
2023-01-23T13:39:27.858Z,5.00
2023-01-23T13:42:38.080Z,5.20
2023-01-23T13:45:30.712Z,5.07
2023-01-23T14:22:50.293Z,6.23
2023-01-23T14:25:23.445Z,6.23
2023-01-23T14:28:03.534Z,6.20
2023-01-23T14:30:33.702Z,6.73
2023-01-23T14:33:02.008Z,5.97
2023-01-23T14:35:32.104Z,5.80
2023-01-23T14:38:02.911Z,6.30
2023-01-23T14:40:46.776Z,5.77
2023-01-23T14:43:20.176Z,6.37
2023-01-23T14:45:49.292Z,6.67
2023-01-23T14:48:18.211Z,7.00
2023-01-23T14:50:46.418Z,6.17
2023-01-23T14:53:16.505Z,6.33
2023-01-23T14:55:49.809Z,6.70
2023-01-23T14:58:22.571Z,6.60
2023-01-23T15:00:51.434Z,6.97
2023-01-23T15:03:41.723Z,6.67
2023-01-23T15:06:13.956Z,6.53
2023-01-23T15:08:42.870Z,6.73
2023-01-23T15:11:13.396Z,7.50
2023-01-23T15:13:44.170Z,7.50
2023-01-23T15:16:15.905Z,7.90
2023-01-23T15:18:53.716Z,7.60
2023-01-23T15:21:33.778Z,7.33
2023-01-23T15:24:29.422Z,7.83
2023-01-23T15:27:03.625Z,6.87
2023-01-23T15:29:32.384Z,7.00
2023-01-23T15:32:02.165Z,7.03
2023-01-23T15:34:33.710Z,7.67
2023-01-23T15:37:08.841Z,7.77
2023-01-23T15:39:41.120Z,7.60
2023-01-23T15:42:30.953Z,7.53
2023-01-23T15:45:01.707Z,7.47
2023-01-23T15:47:34.200Z,7.17
2023-01-23T15:50:03.257Z,7.30
2023-01-23T15:52:43.927Z,8.33
2023-01-23T15:55:12.852Z,7.37
2023-01-23T15:57:43.642Z,7.37
2023-01-23T16:00:18.423Z,7.93
2023-01-23T16:02:55.774Z,7.90
2023-01-23T16:05:27.311Z,7.60
2023-01-23T16:07:56.659Z,7.53
2023-01-23T16:10:27.399Z,6.80
2023-01-23T16:12:59.155Z,7.27
2023-01-23T16:15:29.613Z,7.53
2023-01-23T16:18:03.855Z,7.57
2023-01-23T16:20:41.412Z,7.67
2023-01-23T16:23:15.672Z,7.67
2023-01-23T16:25:46.285Z,7.33
2023-01-23T16:28:18.876Z,7.10
2023-01-23T16:30:49.842Z,7.90
2023-01-23T16:33:19.337Z,8.90
2023-01-23T16:35:48.465Z,7.63
2023-01-23T16:38:21.904Z,8.60
2023-01-23T16:40:54.119Z,8.23
2023-01-23T16:43:49.813Z,8.07
2023-01-23T16:46:20.478Z,7.70
2023-01-23T16:48:50.858Z,8.43
2023-01-23T16:51:22.821Z,8.23
2023-01-23T16:53:54.243Z,7.93
2023-01-23T16:56:26.215Z,8.33
2023-01-23T16:58:56.030Z,8.90
2023-01-23T17:01:24.871Z,8.80
2023-01-23T17:03:56.881Z,9.03
2023-01-23T17:06:25.813Z,8.70
2023-01-23T17:08:57.862Z,8.37
2023-01-23T17:11:29.481Z,9.23
2023-01-23T17:14:00.595Z,8.67
2023-01-23T17:16:28.905Z,9.00
2023-01-23T17:18:58.979Z,8.77
2023-01-23T17:21:31.370Z,8.47
2023-01-23T17:23:59.583Z,9.10
2023-01-23T17:26:27.823Z,9.57
2023-01-23T17:28:56.585Z,8.63
2023-01-23T17:31:28.770Z,9.53
2023-01-23T17:33:57.199Z,8.03
2023-01-23T17:36:26.384Z,9.77
2023-01-23T17:38:55.786Z,9.07
2023-01-23T17:41:24.044Z,8.87
2023-01-23T17:43:52.747Z,9.57
2023-01-23T17:46:27.607Z,10.07
2023-01-23T17:48:56.353Z,10.20
2023-01-23T17:51:25.913Z,10.00
2023-01-23T17:53:55.254Z,9.97
2023-01-23T17:56:23.655Z,10.50
2023-01-23T17:58:51.863Z,9.80
2023-01-23T18:01:23.036Z,10.60
2023-01-23T18:03:53.569Z,10.77
2023-01-23T18:06:22.200Z,11.00
2023-01-23T18:08:50.453Z,10.83
2023-01-23T18:11:21.432Z,10.13
2023-01-23T18:14:15.568Z,10.37
2023-01-23T18:16:45.664Z,10.37
2023-01-23T18:19:19.388Z,10.00
2023-01-23T18:21:49.537Z,10.50
2023-01-23T18:24:24.783Z,10.20
2023-01-23T18:26:59.027Z,10.20
2023-01-23T18:29:33.631Z,9.67
2023-01-23T18:32:13.877Z,9.93
2023-01-23T18:34:48.843Z,10.40
2023-01-23T18:37:22.199Z,11.20
2023-01-23T18:39:58.978Z,10.67
2023-01-23T18:42:33.397Z,11.57
2023-01-23T18:45:04.864Z,10.30
2023-01-23T18:47:33.657Z,11.10
2023-01-23T18:50:03.906Z,10.80
2023-01-23T18:52:42.913Z,11.53
2023-01-23T18:55:17.576Z,10.93
2023-01-23T18:58:01.377Z,10.67
2023-01-23T19:00:31.701Z,10.80
2023-01-23T19:03:09.048Z,10.67
2023-01-23T19:05:38.965Z,10.83
2023-01-23T19:08:07.721Z,9.87
2023-01-23T19:10:48.073Z,10.43
2023-01-23T19:13:20.821Z,10.43
2023-01-23T19:15:56.995Z,10.83
2023-01-23T19:18:43.112Z,10.20
2023-01-23T19:21:18.513Z,11.17
2023-01-23T19:23:52.725Z,10.57
2023-01-23T19:26:22.136Z,10.60
2023-01-23T19:28:52.108Z,10.97
2023-01-23T19:31:23.576Z,10.67
2023-01-23T19:33:56.287Z,10.10
2023-01-23T19:36:29.772Z,11.13
2023-01-23T19:39:03.430Z,11.20
2023-01-23T19:41:39.223Z,11.10
2023-01-23T19:44:07.663Z,10.80
2023-01-23T19:46:37.420Z,11.03
2023-01-23T19:49:09.204Z,10.47
2023-01-23T19:51:47.908Z,11.90
2023-01-23T19:54:30.679Z,10.93
2023-01-23T19:57:10.022Z,11.10
2023-01-23T19:59:41.923Z,10.63
2023-01-23T20:02:18.370Z,11.50
2023-01-23T20:04:52.125Z,10.13
2023-01-23T20:07:23.206Z,11.63
2023-01-23T20:09:59.234Z,10.23
2023-01-23T20:12:29.877Z,10.33
2023-01-23T20:15:23.539Z,11.87
2023-01-23T20:17:58.059Z,10.87
2023-01-23T20:20:32.772Z,11.03
2023-01-23T20:23:14.212Z,11.70
2023-01-23T20:25:44.986Z,11.27
2023-01-23T20:28:21.901Z,11.20
2023-01-23T20:31:01.984Z,11.53
2023-01-23T20:33:35.390Z,10.23
2023-01-23T20:36:07.164Z,10.00
2023-01-23T20:38:44.271Z,11.43
2023-01-23T20:41:18.921Z,10.60
2023-01-23T20:43:51.481Z,11.23
2023-01-23T20:46:22.910Z,10.77
2023-01-23T20:49:12.595Z,10.97
2023-01-23T20:51:48.645Z,10.67
2023-01-23T20:54:20.613Z,10.60
2023-01-23T20:56:50.066Z,10.67
2023-01-23T20:59:28.929Z,10.30
2023-01-23T21:02:16.959Z,10.33
2023-01-23T21:04:58.317Z,10.80
2023-01-23T21:07:37.589Z,11.57
2023-01-23T21:10:10.567Z,9.87
2023-01-23T21:12:41.503Z,9.77
2023-01-23T21:15:13.735Z,11.60
2023-01-23T21:17:42.780Z,10.50
2023-01-23T21:20:13.641Z,10.70
2023-01-23T21:22:45.011Z,10.53
2023-01-23T21:25:19.721Z,10.43
2023-01-23T21:27:52.100Z,11.20
2023-01-23T21:30:24.304Z,10.70
2023-01-23T21:32:56.281Z,10.97
2023-01-23T21:35:31.306Z,11.00
2023-01-23T21:38:01.713Z,10.67
2023-01-23T21:40:35.525Z,9.73
2023-01-23T21:43:07.482Z,10.73
2023-01-23T21:45:40.325Z,9.90
2023-01-23T21:48:13.106Z,10.40
2023-01-23T21:50:42.471Z,10.20
2023-01-23T21:53:10.863Z,10.43
2023-01-23T21:55:40.542Z,10.60
2023-01-23T21:58:08.867Z,10.23
2023-01-23T22:00:54.385Z,11.10
2023-01-23T22:03:23.136Z,10.37
2023-01-23T22:05:51.496Z,9.87
2023-01-23T22:08:19.642Z,10.97
2023-01-23T22:10:49.503Z,11.53
2023-01-23T22:13:17.704Z,9.53
2023-01-23T22:15:46.036Z,11.00
2023-01-23T22:18:14.311Z,10.80
2023-01-23T22:20:42.818Z,10.57
2023-01-23T22:23:11.751Z,10.83
2023-01-23T22:25:40.837Z,10.60
2023-01-23T22:28:11.062Z,11.00
2023-01-23T22:30:39.349Z,10.83
2023-01-23T22:33:07.608Z,10.40
2023-01-23T22:35:39.143Z,9.87
2023-01-23T22:38:07.527Z,10.60
2023-01-23T22:40:35.891Z,11.60
2023-01-23T22:43:04.894Z,11.50
2023-01-23T22:45:34.757Z,10.73
2023-01-23T22:48:03.480Z,11.33
2023-01-23T22:50:31.602Z,10.93
2023-01-23T22:52:59.783Z,11.90
2023-01-23T22:55:28.058Z,12.27
2023-01-23T22:57:56.295Z,11.17
2023-01-23T23:00:24.738Z,11.07
2023-01-23T23:02:54.221Z,11.13
2023-01-23T23:05:23.738Z,10.83
2023-01-23T23:07:51.922Z,10.53
2023-01-23T23:10:20.082Z,10.50
2023-01-23T23:12:48.174Z,10.37
2023-01-23T23:15:17.035Z,11.07
2023-01-23T23:17:45.266Z,10.60
2023-01-23T23:20:14.918Z,9.20
2023-01-23T23:22:43.881Z,9.60
2023-01-23T23:25:12.219Z,9.93
2023-01-23T23:27:40.318Z,10.43
2023-01-23T23:30:10.032Z,10.43
2023-01-23T23:32:38.252Z,11.00
2023-01-23T23:35:07.284Z,10.47
2023-01-23T23:37:37.015Z,10.87
2023-01-23T23:40:05.712Z,10.67
2023-01-23T23:42:34.071Z,10.63
2023-01-23T23:45:02.197Z,11.23
2023-01-23T23:47:30.595Z,11.10
2023-01-23T23:49:58.851Z,9.17
2023-01-23T23:52:26.939Z,9.00
2023-01-23T23:54:56.355Z,10.50
2023-01-23T23:57:24.460Z,10.47
2023-01-23T23:59:52.526Z,10.10
